sensor_id;sensor_type;location;lat;lon;timestamp;temperature;humidity
22633;DHT22;11483;55.828;37.488;2023-12-29T00:01:56;-2.00;99.90
22633;DHT22;11483;55.828;37.488;2023-12-29T00:04:22;-2.00;99.90
22633;DHT22;11483;55.828;37.488;2023-12-29T00:06:49;-1.90;99.90
22633;DHT22;11483;55.828;37.488;2023-12-29T00:09:15;-1.90;99.90
22633;DHT22;11483;55.828;37.488;2023-12-29T00:11:40;-1.90;99.90
22633;DHT22;11483;55.828;37.488;2023-12-29T00:14:06;-1.90;99.90
22633;DHT22;11483;55.828;37.488;2023-12-29T00:16:32;-1.80;99.90
22633;DHT22;11483;55.828;37.488;2023-12-29T00:18:59;-1.80;99.90
22633;DHT22;11483;55.828;37.488;2023-12-29T00:21:25;-1.70;99.90
22633;DHT22;11483;55.828;37.488;2023-12-29T00:23:50;-1.70;99.90
22633;DHT22;11483;55.828;37.488;2023-12-29T00:26:17;-1.70;99.90
22633;DHT22;11483;55.828;37.488;2023-12-29T00:28:43;-1.70;99.90
22633;DHT22;11483;55.828;37.488;2023-12-29T00:31:14;-1.70;99.90
22633;DHT22;11483;55.828;37.488;2023-12-29T00:33:42;-1.70;99.90
22633;DHT22;11483;55.828;37.488;2023-12-29T00:36:08;-1.70;99.90
22633;DHT22;11483;55.828;37.488;2023-12-29T00:38:34;-1.70;99.90
22633;DHT22;11483;55.828;37.488;2023-12-29T00:41:00;-1.70;99.90
22633;DHT22;11483;55.828;37.488;2023-12-29T00:43:25;-1.70;99.90
22633;DHT22;11483;55.828;37.488;2023-12-29T00:45:51;-1.80;99.90
22633;DHT22;11483;55.828;37.488;2023-12-29T00:48:17;-1.80;99.90
22633;DHT22;11483;55.828;37.488;2023-12-29T00:50:43;-1.80;99.90
22633;DHT22;11483;55.828;37.488;2023-12-29T00:53:09;-1.80;99.90
22633;DHT22;11483;55.828;37.488;2023-12-29T00:55:35;-1.90;99.90
22633;DHT22;11483;55.828;37.488;2023-12-29T00:58:01;-1.80;99.90
22633;DHT22;11483;55.828;37.488;2023-12-29T01:00:27;-1.80;99.90
22633;DHT22;11483;55.828;37.488;2023-12-29T01:02:53;-1.80;99.90
22633;DHT22;11483;55.828;37.488;2023-12-29T01:05:18;-1.80;99.90
22633;DHT22;11483;55.828;37.488;2023-12-29T01:07:44;-1.80;99.90
22633;DHT22;11483;55.828;37.488;2023-12-29T01:10:10;-1.90;99.90
22633;DHT22;11483;55.828;37.488;2023-12-29T01:12:36;-1.90;99.90
22633;DHT22;11483;55.828;37.488;2023-12-29T01:15:02;-1.90;99.90
22633;DHT22;11483;55.828;37.488;2023-12-29T01:17:28;-1.90;99.90
22633;DHT22;11483;55.828;37.488;2023-12-29T01:19:54;-1.90;99.90
22633;DHT22;11483;55.828;37.488;2023-12-29T01:22:20;-1.90;99.90
22633;DHT22;11483;55.828;37.488;2023-12-29T01:24:46;-1.90;99.90
22633;DHT22;11483;55.828;37.488;2023-12-29T01:27:12;-1.90;99.90
22633;DHT22;11483;55.828;37.488;2023-12-29T01:29:38;-1.90;99.90
22633;DHT22;11483;55.828;37.488;2023-12-29T01:32:04;-1.90;99.90
22633;DHT22;11483;55.828;37.488;2023-12-29T01:34:33;-1.90;99.90
22633;DHT22;11483;55.828;37.488;2023-12-29T01:37:02;-1.80;99.90
22633;DHT22;11483;55.828;37.488;2023-12-29T01:39:28;-1.80;99.90
22633;DHT22;11483;55.828;37.488;2023-12-29T01:41:55;-2.50;99.90
22633;DHT22;11483;55.828;37.488;2023-12-29T01:44:22;-1.80;99.90
22633;DHT22;11483;55.828;37.488;2023-12-29T01:46:54;-1.80;99.90
22633;DHT22;11483;55.828;37.488;2023-12-29T01:49:21;-1.80;99.90
22633;DHT22;11483;55.828;37.488;2023-12-29T01:51:53;-1.70;99.90
22633;DHT22;11483;55.828;37.488;2023-12-29T01:54:21;-1.70;99.90
22633;DHT22;11483;55.828;37.488;2023-12-29T01:56:50;-1.70;99.90
22633;DHT22;11483;55.828;37.488;2023-12-29T01:59:16;-1.70;99.90
22633;DHT22;11483;55.828;37.488;2023-12-29T02:01:43;-1.70;99.90
22633;DHT22;11483;55.828;37.488;2023-12-29T02:04:12;-1.70;99.90
22633;DHT22;11483;55.828;37.488;2023-12-29T02:06:39;-1.70;99.90
22633;DHT22;11483;55.828;37.488;2023-12-29T02:09:05;-1.60;99.90
22633;DHT22;11483;55.828;37.488;2023-12-29T02:11:32;-1.60;99.90
22633;DHT22;11483;55.828;37.488;2023-12-29T02:14:01;-1.70;99.90
22633;DHT22;11483;55.828;37.488;2023-12-29T02:19:40;-1.70;99.90
22633;DHT22;11483;55.828;37.488;2023-12-29T02:22:08;-1.60;99.90
22633;DHT22;11483;55.828;37.488;2023-12-29T02:24:34;-1.60;99.90
22633;DHT22;11483;55.828;37.488;2023-12-29T02:30:08;-1.60;99.90
22633;DHT22;11483;55.828;37.488;2023-12-29T02:32:39;-1.60;99.90
22633;DHT22;11483;55.828;37.488;2023-12-29T02:35:11;-1.60;99.90
22633;DHT22;11483;55.828;37.488;2023-12-29T02:37:39;-1.60;99.90
22633;DHT22;11483;55.828;37.488;2023-12-29T02:40:07;-1.60;99.90
22633;DHT22;11483;55.828;37.488;2023-12-29T02:42:33;-1.70;99.90
22633;DHT22;11483;55.828;37.488;2023-12-29T02:45:00;-1.60;99.90
22633;DHT22;11483;55.828;37.488;2023-12-29T02:47:26;-1.60;99.90
22633;DHT22;11483;55.828;37.488;2023-12-29T02:49:52;-1.70;99.90
22633;DHT22;11483;55.828;37.488;2023-12-29T02:52:18;-1.70;99.90
22633;DHT22;11483;55.828;37.488;2023-12-29T02:54:44;-1.70;99.90
22633;DHT22;11483;55.828;37.488;2023-12-29T02:57:10;-1.70;99.90
22633;DHT22;11483;55.828;37.488;2023-12-29T02:59:36;-1.60;99.90
22633;DHT22;11483;55.828;37.488;2023-12-29T03:02:03;-1.60;99.90
22633;DHT22;11483;55.828;37.488;2023-12-29T03:04:29;-1.60;99.90
22633;DHT22;11483;55.828;37.488;2023-12-29T03:06:55;-1.60;99.90
22633;DHT22;11483;55.828;37.488;2023-12-29T03:09:21;-1.60;99.90
22633;DHT22;11483;55.828;37.488;2023-12-29T03:11:47;-1.60;99.90
22633;DHT22;11483;55.828;37.488;2023-12-29T03:14:15;-1.60;99.90
22633;DHT22;11483;55.828;37.488;2023-12-29T03:16:41;-1.50;99.90
22633;DHT22;11483;55.828;37.488;2023-12-29T03:19:07;-1.50;99.90
22633;DHT22;11483;55.828;37.488;2023-12-29T03:21:33;-1.50;99.90
22633;DHT22;11483;55.828;37.488;2023-12-29T03:23:59;-1.50;99.90
22633;DHT22;11483;55.828;37.488;2023-12-29T03:26:25;-1.50;99.90
22633;DHT22;11483;55.828;37.488;2023-12-29T03:28:50;-1.50;99.90
22633;DHT22;11483;55.828;37.488;2023-12-29T03:31:16;-1.50;99.90
22633;DHT22;11483;55.828;37.488;2023-12-29T03:33:42;-1.50;99.90
22633;DHT22;11483;55.828;37.488;2023-12-29T03:36:09;-1.50;99.90
22633;DHT22;11483;55.828;37.488;2023-12-29T03:38:35;-1.50;99.90
22633;DHT22;11483;55.828;37.488;2023-12-29T03:41:05;-1.50;99.90
22633;DHT22;11483;55.828;37.488;2023-12-29T03:43:31;-1.50;99.90
22633;DHT22;11483;55.828;37.488;2023-12-29T03:45:57;-1.40;99.90
22633;DHT22;11483;55.828;37.488;2023-12-29T03:48:24;-1.40;99.90
22633;DHT22;11483;55.828;37.488;2023-12-29T03:50:49;-1.30;99.90
22633;DHT22;11483;55.828;37.488;2023-12-29T03:53:15;-1.40;99.90
22633;DHT22;11483;55.828;37.488;2023-12-29T03:55:41;-1.40;99.90
22633;DHT22;11483;55.828;37.488;2023-12-29T03:58:07;-1.40;99.90
22633;DHT22;11483;55.828;37.488;2023-12-29T04:00:34;-1.40;99.90
22633;DHT22;11483;55.828;37.488;2023-12-29T04:03:00;-1.40;99.90
22633;DHT22;11483;55.828;37.488;2023-12-29T04:05:26;-1.40;99.90
22633;DHT22;11483;55.828;37.488;2023-12-29T04:07:52;-1.40;99.90
22633;DHT22;11483;55.828;37.488;2023-12-29T04:10:18;-1.40;99.90
22633;DHT22;11483;55.828;37.488;2023-12-29T04:12:44;-1.40;99.90
22633;DHT22;11483;55.828;37.488;2023-12-29T04:15:11;-1.40;99.90
22633;DHT22;11483;55.828;37.488;2023-12-29T04:17:37;-1.50;99.90
22633;DHT22;11483;55.828;37.488;2023-12-29T04:20:04;-1.50;99.90
22633;DHT22;11483;55.828;37.488;2023-12-29T04:22:30;-1.60;99.90
22633;DHT22;11483;55.828;37.488;2023-12-29T04:24:55;-1.60;99.90
22633;DHT22;11483;55.828;37.488;2023-12-29T04:27:22;-1.60;99.90
22633;DHT22;11483;55.828;37.488;2023-12-29T04:29:48;-1.60;99.90
22633;DHT22;11483;55.828;37.488;2023-12-29T04:32:14;-1.60;99.90
22633;DHT22;11483;55.828;37.488;2023-12-29T04:34:40;-1.60;99.90
22633;DHT22;11483;55.828;37.488;2023-12-29T04:37:06;-1.70;99.90
22633;DHT22;11483;55.828;37.488;2023-12-29T04:39:32;-1.80;99.90
22633;DHT22;11483;55.828;37.488;2023-12-29T04:41:58;-1.80;99.90
22633;DHT22;11483;55.828;37.488;2023-12-29T04:44:24;-1.80;99.90
22633;DHT22;11483;55.828;37.488;2023-12-29T04:46:50;-1.80;99.90
22633;DHT22;11483;55.828;37.488;2023-12-29T04:49:16;-1.80;99.90
22633;DHT22;11483;55.828;37.488;2023-12-29T04:51:41;-1.80;99.90
22633;DHT22;11483;55.828;37.488;2023-12-29T04:54:08;-1.80;99.90
22633;DHT22;11483;55.828;37.488;2023-12-29T04:56:34;-1.80;99.90
22633;DHT22;11483;55.828;37.488;2023-12-29T04:58:59;-1.80;99.90
22633;DHT22;11483;55.828;37.488;2023-12-29T05:01:25;-1.80;99.90
22633;DHT22;11483;55.828;37.488;2023-12-29T05:03:51;-1.80;99.90
22633;DHT22;11483;55.828;37.488;2023-12-29T05:06:17;-1.70;99.90
22633;DHT22;11483;55.828;37.488;2023-12-29T05:08:43;-1.70;99.90
22633;DHT22;11483;55.828;37.488;2023-12-29T05:11:09;-1.70;99.90
22633;DHT22;11483;55.828;37.488;2023-12-29T05:13:35;-1.70;99.90
22633;DHT22;11483;55.828;37.488;2023-12-29T05:16:01;-1.70;99.90
22633;DHT22;11483;55.828;37.488;2023-12-29T05:18:29;-1.70;99.90
22633;DHT22;11483;55.828;37.488;2023-12-29T05:20:55;-1.70;99.90
22633;DHT22;11483;55.828;37.488;2023-12-29T05:23:21;-1.70;99.90
22633;DHT22;11483;55.828;37.488;2023-12-29T05:25:47;-1.60;99.90
22633;DHT22;11483;55.828;37.488;2023-12-29T05:28:13;-1.60;99.90
22633;DHT22;11483;55.828;37.488;2023-12-29T05:30:39;-1.60;99.90
22633;DHT22;11483;55.828;37.488;2023-12-29T05:33:05;-1.60;99.90
22633;DHT22;11483;55.828;37.488;2023-12-29T05:35:31;-1.60;99.90
22633;DHT22;11483;55.828;37.488;2023-12-29T05:37:56;-1.70;99.90
22633;DHT22;11483;55.828;37.488;2023-12-29T05:40:22;-1.70;99.90
22633;DHT22;11483;55.828;37.488;2023-12-29T05:42:48;-1.70;99.90
22633;DHT22;11483;55.828;37.488;2023-12-29T05:45:16;-1.60;99.90
22633;DHT22;11483;55.828;37.488;2023-12-29T05:47:43;-1.60;99.90
22633;DHT22;11483;55.828;37.488;2023-12-29T05:50:09;-1.60;99.90
22633;DHT22;11483;55.828;37.488;2023-12-29T05:52:35;-1.60;99.90
22633;DHT22;11483;55.828;37.488;2023-12-29T05:55:01;-1.60;99.90
22633;DHT22;11483;55.828;37.488;2023-12-29T05:57:27;-1.60;99.90
22633;DHT22;11483;55.828;37.488;2023-12-29T05:59:52;-1.60;99.90
22633;DHT22;11483;55.828;37.488;2023-12-29T06:02:18;-1.60;99.90
22633;DHT22;11483;55.828;37.488;2023-12-29T06:04:44;-1.60;99.90
22633;DHT22;11483;55.828;37.488;2023-12-29T06:07:10;-1.60;99.90
22633;DHT22;11483;55.828;37.488;2023-12-29T06:09:36;-1.60;99.90
22633;DHT22;11483;55.828;37.488;2023-12-29T06:12:02;-1.60;99.90
22633;DHT22;11483;55.828;37.488;2023-12-29T06:14:28;-1.60;99.90
22633;DHT22;11483;55.828;37.488;2023-12-29T06:16:54;-1.60;99.90
22633;DHT22;11483;55.828;37.488;2023-12-29T06:19:20;-1.50;99.90
22633;DHT22;11483;55.828;37.488;2023-12-29T06:21:46;-1.50;99.90
22633;DHT22;11483;55.828;37.488;2023-12-29T06:24:12;-1.50;99.90
22633;DHT22;11483;55.828;37.488;2023-12-29T06:26:39;-1.50;99.90
22633;DHT22;11483;55.828;37.488;2023-12-29T06:29:09;-1.50;99.90
22633;DHT22;11483;55.828;37.488;2023-12-29T06:31:35;-1.50;99.90
22633;DHT22;11483;55.828;37.488;2023-12-29T06:34:01;-1.50;99.90
22633;DHT22;11483;55.828;37.488;2023-12-29T06:36:27;-1.50;99.90
22633;DHT22;11483;55.828;37.488;2023-12-29T06:38:53;-1.50;99.90
22633;DHT22;11483;55.828;37.488;2023-12-29T06:41:19;-1.40;99.90
22633;DHT22;11483;55.828;37.488;2023-12-29T06:43:45;-1.40;99.90
22633;DHT22;11483;55.828;37.488;2023-12-29T06:46:11;-1.40;99.90
22633;DHT22;11483;55.828;37.488;2023-12-29T06:48:40;-1.30;99.90
22633;DHT22;11483;55.828;37.488;2023-12-29T06:51:06;-1.30;99.90
22633;DHT22;11483;55.828;37.488;2023-12-29T06:53:33;-1.30;99.90
22633;DHT22;11483;55.828;37.488;2023-12-29T06:55:59;-1.30;99.90
22633;DHT22;11483;55.828;37.488;2023-12-29T06:58:25;-1.20;99.90
22633;DHT22;11483;55.828;37.488;2023-12-29T07:00:51;-1.20;99.90
22633;DHT22;11483;55.828;37.488;2023-12-29T07:03:17;-1.30;99.90
22633;DHT22;11483;55.828;37.488;2023-12-29T07:05:43;-1.20;99.90
22633;DHT22;11483;55.828;37.488;2023-12-29T07:08:12;-1.20;99.90
22633;DHT22;11483;55.828;37.488;2023-12-29T07:10:38;-1.20;99.90
22633;DHT22;11483;55.828;37.488;2023-12-29T07:13:04;-1.10;99.90
22633;DHT22;11483;55.828;37.488;2023-12-29T07:15:30;-1.10;99.90
22633;DHT22;11483;55.828;37.488;2023-12-29T07:17:56;-1.10;99.90
22633;DHT22;11483;55.828;37.488;2023-12-29T07:20:22;-1.10;99.90
22633;DHT22;11483;55.828;37.488;2023-12-29T07:22:48;-1.10;99.90
22633;DHT22;11483;55.828;37.488;2023-12-29T07:25:14;-1.00;99.90
22633;DHT22;11483;55.828;37.488;2023-12-29T07:27:40;-1.00;99.90
22633;DHT22;11483;55.828;37.488;2023-12-29T07:30:07;-1.00;99.90
22633;DHT22;11483;55.828;37.488;2023-12-29T07:32:34;-0.90;99.90
22633;DHT22;11483;55.828;37.488;2023-12-29T07:35:00;-0.80;99.90
22633;DHT22;11483;55.828;37.488;2023-12-29T07:37:26;-0.90;99.90
22633;DHT22;11483;55.828;37.488;2023-12-29T07:39:51;-0.80;99.90
22633;DHT22;11483;55.828;37.488;2023-12-29T07:42:17;-0.80;99.90
22633;DHT22;11483;55.828;37.488;2023-12-29T07:44:43;-0.80;99.90
22633;DHT22;11483;55.828;37.488;2023-12-29T07:47:09;-0.70;99.90
22633;DHT22;11483;55.828;37.488;2023-12-29T07:49:37;-0.70;99.90
22633;DHT22;11483;55.828;37.488;2023-12-29T07:52:03;-0.70;99.90
22633;DHT22;11483;55.828;37.488;2023-12-29T07:54:29;-0.70;99.90
22633;DHT22;11483;55.828;37.488;2023-12-29T07:56:55;-0.70;99.90
22633;DHT22;11483;55.828;37.488;2023-12-29T07:59:21;-0.70;99.90
22633;DHT22;11483;55.828;37.488;2023-12-29T08:01:47;-0.70;99.90
22633;DHT22;11483;55.828;37.488;2023-12-29T08:04:13;-0.60;99.90
22633;DHT22;11483;55.828;37.488;2023-12-29T08:06:39;-0.60;99.90
22633;DHT22;11483;55.828;37.488;2023-12-29T08:09:05;-0.50;99.90
22633;DHT22;11483;55.828;37.488;2023-12-29T08:11:33;-0.40;99.90
22633;DHT22;11483;55.828;37.488;2023-12-29T08:13:59;-0.40;99.90
22633;DHT22;11483;55.828;37.488;2023-12-29T08:16:25;-0.30;99.90
22633;DHT22;11483;55.828;37.488;2023-12-29T08:18:52;-0.30;99.90
22633;DHT22;11483;55.828;37.488;2023-12-29T08:21:21;-0.20;99.90
22633;DHT22;11483;55.828;37.488;2023-12-29T08:23:48;-0.20;99.90
22633;DHT22;11483;55.828;37.488;2023-12-29T08:26:15;-0.20;99.90
22633;DHT22;11483;55.828;37.488;2023-12-29T08:28:41;-0.20;99.90
22633;DHT22;11483;55.828;37.488;2023-12-29T08:31:07;-0.20;99.90
22633;DHT22;11483;55.828;37.488;2023-12-29T08:33:33;-0.20;99.90
22633;DHT22;11483;55.828;37.488;2023-12-29T08:36:01;-0.20;99.90
22633;DHT22;11483;55.828;37.488;2023-12-29T08:38:27;-0.20;99.90
22633;DHT22;11483;55.828;37.488;2023-12-29T08:40:53;-0.20;99.90
22633;DHT22;11483;55.828;37.488;2023-12-29T08:43:19;-0.20;99.90
22633;DHT22;11483;55.828;37.488;2023-12-29T08:45:50;-0.20;99.90
22633;DHT22;11483;55.828;37.488;2023-12-29T08:48:16;-0.20;99.90
22633;DHT22;11483;55.828;37.488;2023-12-29T08:50:42;-0.20;99.90
22633;DHT22;11483;55.828;37.488;2023-12-29T08:53:11;-0.20;99.90
22633;DHT22;11483;55.828;37.488;2023-12-29T08:55:37;-0.10;99.90
22633;DHT22;11483;55.828;37.488;2023-12-29T08:58:03;-0.20;99.90
22633;DHT22;11483;55.828;37.488;2023-12-29T09:00:29;-0.10;99.90
22633;DHT22;11483;55.828;37.488;2023-12-29T09:02:59;-1.30;99.90
22633;DHT22;11483;55.828;37.488;2023-12-29T09:05:25;-0.10;99.90
22633;DHT22;11483;55.828;37.488;2023-12-29T09:07:51;-0.10;99.90
22633;DHT22;11483;55.828;37.488;2023-12-29T09:10:17;-0.10;99.90
22633;DHT22;11483;55.828;37.488;2023-12-29T09:12:43;0.00;99.90
22633;DHT22;11483;55.828;37.488;2023-12-29T09:15:09;0.00;99.90
22633;DHT22;11483;55.828;37.488;2023-12-29T09:17:35;-0.10;99.90
22633;DHT22;11483;55.828;37.488;2023-12-29T09:20:02;-0.10;99.90
22633;DHT22;11483;55.828;37.488;2023-12-29T09:22:29;0.00;99.90
22633;DHT22;11483;55.828;37.488;2023-12-29T09:24:55;0.00;99.90
22633;DHT22;11483;55.828;37.488;2023-12-29T09:27:21;0.00;99.90
22633;DHT22;11483;55.828;37.488;2023-12-29T09:29:47;0.10;99.90
22633;DHT22;11483;55.828;37.488;2023-12-29T09:32:13;0.10;99.90
22633;DHT22;11483;55.828;37.488;2023-12-29T09:34:39;0.20;99.90
22633;DHT22;11483;55.828;37.488;2023-12-29T09:37:05;0.20;99.90
22633;DHT22;11483;55.828;37.488;2023-12-29T09:39:31;0.30;99.90
22633;DHT22;11483;55.828;37.488;2023-12-29T09:41:59;0.30;99.90
22633;DHT22;11483;55.828;37.488;2023-12-29T09:44:28;0.30;99.90
22633;DHT22;11483;55.828;37.488;2023-12-29T09:46:55;0.30;99.90
22633;DHT22;11483;55.828;37.488;2023-12-29T09:49:23;0.30;99.90
22633;DHT22;11483;55.828;37.488;2023-12-29T09:51:50;0.30;99.90
22633;DHT22;11483;55.828;37.488;2023-12-29T09:54:17;0.30;99.90
22633;DHT22;11483;55.828;37.488;2023-12-29T09:56:43;0.40;99.90
22633;DHT22;11483;55.828;37.488;2023-12-29T09:59:10;0.40;99.90
22633;DHT22;11483;55.828;37.488;2023-12-29T10:01:37;0.40;99.90
22633;DHT22;11483;55.828;37.488;2023-12-29T10:04:05;0.50;99.90
22633;DHT22;11483;55.828;37.488;2023-12-29T10:06:34;0.60;99.90
22633;DHT22;11483;55.828;37.488;2023-12-29T10:09:03;0.60;99.90
22633;DHT22;11483;55.828;37.488;2023-12-29T10:11:35;0.60;99.90
22633;DHT22;11483;55.828;37.488;2023-12-29T10:14:10;0.60;99.90
22633;DHT22;11483;55.828;37.488;2023-12-29T10:16:42;0.60;99.90
22633;DHT22;11483;55.828;37.488;2023-12-29T10:19:33;0.50;99.90
22633;DHT22;11483;55.828;37.488;2023-12-29T10:22:21;0.50;99.90
22633;DHT22;11483;55.828;37.488;2023-12-29T10:24:48;0.50;99.90
22633;DHT22;11483;55.828;37.488;2023-12-29T10:27:16;0.40;99.90
22633;DHT22;11483;55.828;37.488;2023-12-29T10:29:42;0.40;99.90
22633;DHT22;11483;55.828;37.488;2023-12-29T10:32:08;0.40;99.90
22633;DHT22;11483;55.828;37.488;2023-12-29T10:34:35;0.40;99.90
22633;DHT22;11483;55.828;37.488;2023-12-29T10:37:02;0.50;99.90
22633;DHT22;11483;55.828;37.488;2023-12-29T10:39:30;0.60;99.90
22633;DHT22;11483;55.828;37.488;2023-12-29T10:42:04;0.50;99.90
22633;DHT22;11483;55.828;37.488;2023-12-29T10:44:37;0.60;99.90
22633;DHT22;11483;55.828;37.488;2023-12-29T10:47:13;0.70;99.90
22633;DHT22;11483;55.828;37.488;2023-12-29T10:49:41;0.70;99.90
22633;DHT22;11483;55.828;37.488;2023-12-29T10:52:14;0.70;99.90
22633;DHT22;11483;55.828;37.488;2023-12-29T10:54:41;0.70;99.90
22633;DHT22;11483;55.828;37.488;2023-12-29T10:57:10;0.70;99.90
22633;DHT22;11483;55.828;37.488;2023-12-29T10:59:38;0.80;99.90
22633;DHT22;11483;55.828;37.488;2023-12-29T11:02:04;0.80;99.90
22633;DHT22;11483;55.828;37.488;2023-12-29T11:04:30;0.80;99.90
22633;DHT22;11483;55.828;37.488;2023-12-29T11:06:57;0.80;99.90
22633;DHT22;11483;55.828;37.488;2023-12-29T11:09:33;0.80;99.90
22633;DHT22;11483;55.828;37.488;2023-12-29T11:12:03;0.80;99.90
22633;DHT22;11483;55.828;37.488;2023-12-29T11:14:30;0.80;99.90
22633;DHT22;11483;55.828;37.488;2023-12-29T11:16:57;0.70;99.90
22633;DHT22;11483;55.828;37.488;2023-12-29T11:19:29;0.70;99.90
22633;DHT22;11483;55.828;37.488;2023-12-29T11:21:56;0.80;99.90
22633;DHT22;11483;55.828;37.488;2023-12-29T11:24:23;0.90;99.90
22633;DHT22;11483;55.828;37.488;2023-12-29T11:26:50;0.90;99.90
22633;DHT22;11483;55.828;37.488;2023-12-29T11:29:19;0.90;99.90
22633;DHT22;11483;55.828;37.488;2023-12-29T11:31:47;0.90;99.90
22633;DHT22;11483;55.828;37.488;2023-12-29T11:34:31;1.00;99.90
22633;DHT22;11483;55.828;37.488;2023-12-29T11:37:18;1.00;99.90
22633;DHT22;11483;55.828;37.488;2023-12-29T11:40:04;1.10;99.90
22633;DHT22;11483;55.828;37.488;2023-12-29T11:42:39;1.10;99.90
22633;DHT22;11483;55.828;37.488;2023-12-29T11:45:44;1.20;99.90
22633;DHT22;11483;55.828;37.488;2023-12-29T11:48:11;1.20;99.90
22633;DHT22;11483;55.828;37.488;2023-12-29T11:50:38;1.20;99.90
22633;DHT22;11483;55.828;37.488;2023-12-29T11:53:08;1.20;99.90
22633;DHT22;11483;55.828;37.488;2023-12-29T11:55:38;1.20;99.90
22633;DHT22;11483;55.828;37.488;2023-12-29T11:58:26;1.20;99.90
22633;DHT22;11483;55.828;37.488;2023-12-29T12:00:54;1.20;99.90
22633;DHT22;11483;55.828;37.488;2023-12-29T12:03:27;1.30;99.90
22633;DHT22;11483;55.828;37.488;2023-12-29T12:05:55;1.30;99.90
22633;DHT22;11483;55.828;37.488;2023-12-29T12:08:27;1.40;99.90
22633;DHT22;11483;55.828;37.488;2023-12-29T12:10:54;1.40;99.90
22633;DHT22;11483;55.828;37.488;2023-12-29T12:13:45;1.40;99.90
22633;DHT22;11483;55.828;37.488;2023-12-29T12:19:11;1.50;99.90
22633;DHT22;11483;55.828;37.488;2023-12-29T12:21:40;1.50;99.90
22633;DHT22;11483;55.828;37.488;2023-12-29T12:24:08;1.50;99.90
22633;DHT22;11483;55.828;37.488;2023-12-29T12:26:34;1.50;99.90
22633;DHT22;11483;55.828;37.488;2023-12-29T12:29:00;1.60;99.90
22633;DHT22;11483;55.828;37.488;2023-12-29T12:31:26;1.60;99.90
22633;DHT22;11483;55.828;37.488;2023-12-29T12:33:59;1.60;99.90
22633;DHT22;11483;55.828;37.488;2023-12-29T12:36:29;1.60;99.90
22633;DHT22;11483;55.828;37.488;2023-12-29T12:38:58;1.60;99.90
22633;DHT22;11483;55.828;37.488;2023-12-29T12:41:25;1.70;99.90
22633;DHT22;11483;55.828;37.488;2023-12-29T12:44:03;1.70;99.90
22633;DHT22;11483;55.828;37.488;2023-12-29T12:46:50;1.80;99.90
22633;DHT22;11483;55.828;37.488;2023-12-29T12:49:20;1.80;99.90
22633;DHT22;11483;55.828;37.488;2023-12-29T12:51:46;1.80;99.90
22633;DHT22;11483;55.828;37.488;2023-12-29T12:54:15;1.80;99.90
22633;DHT22;11483;55.828;37.488;2023-12-29T12:56:43;1.80;99.90
22633;DHT22;11483;55.828;37.488;2023-12-29T12:59:10;1.90;99.90
22633;DHT22;11483;55.828;37.488;2023-12-29T13:01:38;1.90;99.90
22633;DHT22;11483;55.828;37.488;2023-12-29T13:04:04;2.00;99.90
22633;DHT22;11483;55.828;37.488;2023-12-29T13:06:34;2.00;99.90
22633;DHT22;11483;55.828;37.488;2023-12-29T13:09:05;2.00;99.90
22633;DHT22;11483;55.828;37.488;2023-12-29T13:11:37;2.00;99.90
22633;DHT22;11483;55.828;37.488;2023-12-29T13:14:03;2.10;99.90
22633;DHT22;11483;55.828;37.488;2023-12-29T13:16:31;2.10;99.90
22633;DHT22;11483;55.828;37.488;2023-12-29T13:19:14;2.10;99.90
22633;DHT22;11483;55.828;37.488;2023-12-29T13:21:40;2.10;99.90
22633;DHT22;11483;55.828;37.488;2023-12-29T13:24:05;2.10;99.90
22633;DHT22;11483;55.828;37.488;2023-12-29T13:26:31;2.10;99.90
22633;DHT22;11483;55.828;37.488;2023-12-29T13:28:58;2.10;99.90
22633;DHT22;11483;55.828;37.488;2023-12-29T13:31:24;2.10;99.90
22633;DHT22;11483;55.828;37.488;2023-12-29T13:34:00;2.10;99.90
22633;DHT22;11483;55.828;37.488;2023-12-29T13:39:36;2.10;99.90
22633;DHT22;11483;55.828;37.488;2023-12-29T13:42:04;2.20;99.90
22633;DHT22;11483;55.828;37.488;2023-12-29T13:44:31;2.20;99.90
22633;DHT22;11483;55.828;37.488;2023-12-29T13:46:58;2.20;99.90
22633;DHT22;11483;55.828;37.488;2023-12-29T13:49:24;2.20;99.90
22633;DHT22;11483;55.828;37.488;2023-12-29T13:51:51;2.20;99.90
22633;DHT22;11483;55.828;37.488;2023-12-29T13:54:17;2.20;99.90
22633;DHT22;11483;55.828;37.488;2023-12-29T13:56:52;2.20;99.90
22633;DHT22;11483;55.828;37.488;2023-12-29T13:59:28;2.20;99.90
22633;DHT22;11483;55.828;37.488;2023-12-29T14:01:54;2.20;99.90
22633;DHT22;11483;55.828;37.488;2023-12-29T14:04:20;2.20;99.90
22633;DHT22;11483;55.828;37.488;2023-12-29T14:06:55;2.20;99.90
22633;DHT22;11483;55.828;37.488;2023-12-29T14:09:24;2.20;99.90
22633;DHT22;11483;55.828;37.488;2023-12-29T14:11:51;2.20;99.90
22633;DHT22;11483;55.828;37.488;2023-12-29T14:14:24;2.20;99.90
22633;DHT22;11483;55.828;37.488;2023-12-29T14:16:53;2.30;99.90
22633;DHT22;11483;55.828;37.488;2023-12-29T14:19:20;2.20;99.90
22633;DHT22;11483;55.828;37.488;2023-12-29T14:21:55;2.30;99.90
22633;DHT22;11483;55.828;37.488;2023-12-29T14:24:21;2.30;99.90
22633;DHT22;11483;55.828;37.488;2023-12-29T14:29:20;2.30;99.90
22633;DHT22;11483;55.828;37.488;2023-12-29T14:31:47;2.30;99.90
22633;DHT22;11483;55.828;37.488;2023-12-29T14:34:13;2.30;99.90
22633;DHT22;11483;55.828;37.488;2023-12-29T14:36:41;2.30;99.90
22633;DHT22;11483;55.828;37.488;2023-12-29T14:39:07;2.40;99.90
22633;DHT22;11483;55.828;37.488;2023-12-29T14:41:36;2.40;99.90
22633;DHT22;11483;55.828;37.488;2023-12-29T14:44:02;2.40;99.90
22633;DHT22;11483;55.828;37.488;2023-12-29T14:46:28;2.40;99.90
22633;DHT22;11483;55.828;37.488;2023-12-29T14:48:57;2.50;99.90
22633;DHT22;11483;55.828;37.488;2023-12-29T14:51:24;2.50;99.90
22633;DHT22;11483;55.828;37.488;2023-12-29T14:53:50;2.50;99.90
22633;DHT22;11483;55.828;37.488;2023-12-29T14:56:16;2.50;99.90
22633;DHT22;11483;55.828;37.488;2023-12-29T14:58:43;2.50;99.90
22633;DHT22;11483;55.828;37.488;2023-12-29T15:01:09;2.50;99.90
22633;DHT22;11483;55.828;37.488;2023-12-29T15:03:36;2.50;99.90
22633;DHT22;11483;55.828;37.488;2023-12-29T15:06:03;2.50;99.90
22633;DHT22;11483;55.828;37.488;2023-12-29T15:08:29;2.60;99.90
22633;DHT22;11483;55.828;37.488;2023-12-29T15:11:06;2.60;99.90
22633;DHT22;11483;55.828;37.488;2023-12-29T15:13:33;2.60;99.90
22633;DHT22;11483;55.828;37.488;2023-12-29T15:16:00;2.60;99.90
22633;DHT22;11483;55.828;37.488;2023-12-29T15:18:29;2.60;99.90
22633;DHT22;11483;55.828;37.488;2023-12-29T15:20:56;2.60;99.90
22633;DHT22;11483;55.828;37.488;2023-12-29T15:23:22;2.70;99.90
22633;DHT22;11483;55.828;37.488;2023-12-29T15:25:49;2.70;99.90
22633;DHT22;11483;55.828;37.488;2023-12-29T15:28:16;2.70;99.90
22633;DHT22;11483;55.828;37.488;2023-12-29T15:30:45;2.70;99.90
22633;DHT22;11483;55.828;37.488;2023-12-29T15:33:11;2.70;99.90
22633;DHT22;11483;55.828;37.488;2023-12-29T15:35:38;2.70;99.90
22633;DHT22;11483;55.828;37.488;2023-12-29T15:38:06;2.70;99.90
22633;DHT22;11483;55.828;37.488;2023-12-29T15:40:32;2.70;99.90